Hudson Mills, Michigan
Current Conditions -  °F | °C
As of 11:53 AM on Thursday 23 Oct 2014 (Local Time) from KARB Reporting Station
Clear Clear  
Wind Chill: 52°   Ceiling: Unl
Heat Index: 52°   Visibility: NA
Dew Point: 40°   Wind: 9mph
Humidity: 63%   Direction: 310°NW
Pressure: 30.24"   Gusts: NA
Location:  42.3528°N, 83.8974°W
Report Text: KARB 231553Z 31008KT CLR 11/04 A3024 RMK AO2 SLP243 T01110044 $
Loading
Personal Weather Stations






























Interactive Weather Map
Tropical Storm Tracking
New forecast layout! Learn more

10-Day Weather Forecast

Advertisements
Track Severe Weather on mobile